sensor_id;sensor_type;location;lat;lon;timestamp;temperature;humidity
20041;DHT22;10181;48.072;9.884;2023-02-03T00:02:20;4.10;99.90
20041;DHT22;10181;48.072;9.884;2023-02-03T00:04:46;4.10;99.90
20041;DHT22;10181;48.072;9.884;2023-02-03T00:07:12;4.10;99.90
20041;DHT22;10181;48.072;9.884;2023-02-03T00:09:38;4.00;99.90
20041;DHT22;10181;48.072;9.884;2023-02-03T00:12:04;4.00;99.90
20041;DHT22;10181;48.072;9.884;2023-02-03T00:14:30;4.10;99.90
20041;DHT22;10181;48.072;9.884;2023-02-03T00:16:58;4.00;99.90
20041;DHT22;10181;48.072;9.884;2023-02-03T00:19:24;4.00;99.90
20041;DHT22;10181;48.072;9.884;2023-02-03T00:21:49;4.00;99.90
20041;DHT22;10181;48.072;9.884;2023-02-03T00:24:15;3.90;99.90
20041;DHT22;10181;48.072;9.884;2023-02-03T00:26:43;3.90;99.90
20041;DHT22;10181;48.072;9.884;2023-02-03T00:29:09;4.00;99.90
20041;DHT22;10181;48.072;9.884;2023-02-03T00:31:34;4.00;99.90
20041;DHT22;10181;48.072;9.884;2023-02-03T00:34:00;4.00;99.90
20041;DHT22;10181;48.072;9.884;2023-02-03T00:36:26;3.90;99.90
20041;DHT22;10181;48.072;9.884;2023-02-03T00:38:52;3.90;99.90
20041;DHT22;10181;48.072;9.884;2023-02-03T00:41:19;3.90;99.90
20041;DHT22;10181;48.072;9.884;2023-02-03T00:43:45;3.90;99.90
20041;DHT22;10181;48.072;9.884;2023-02-03T00:46:11;3.80;99.90
20041;DHT22;10181;48.072;9.884;2023-02-03T00:48:36;3.80;99.90
20041;DHT22;10181;48.072;9.884;2023-02-03T00:51:02;3.80;99.90
20041;DHT22;10181;48.072;9.884;2023-02-03T00:53:28;3.80;99.90
20041;DHT22;10181;48.072;9.884;2023-02-03T00:55:53;3.80;99.90
20041;DHT22;10181;48.072;9.884;2023-02-03T00:58:19;3.80;99.90
20041;DHT22;10181;48.072;9.884;2023-02-03T01:00:45;3.70;99.90
20041;DHT22;10181;48.072;9.884;2023-02-03T01:03:10;3.60;99.90
20041;DHT22;10181;48.072;9.884;2023-02-03T01:05:36;3.60;99.90
20041;DHT22;10181;48.072;9.884;2023-02-03T01:08:02;3.60;99.90
20041;DHT22;10181;48.072;9.884;2023-02-03T01:10:29;3.60;99.90
20041;DHT22;10181;48.072;9.884;2023-02-03T01:12:54;3.70;99.90
20041;DHT22;10181;48.072;9.884;2023-02-03T01:15:20;3.70;99.90
20041;DHT22;10181;48.072;9.884;2023-02-03T01:17:46;3.70;99.90
20041;DHT22;10181;48.072;9.884;2023-02-03T01:20:11;3.60;99.90
20041;DHT22;10181;48.072;9.884;2023-02-03T01:22:38;3.70;99.90
20041;DHT22;10181;48.072;9.884;2023-02-03T01:25:04;3.60;99.90
20041;DHT22;10181;48.072;9.884;2023-02-03T01:27:32;3.60;99.90
20041;DHT22;10181;48.072;9.884;2023-02-03T01:30:00;3.70;99.90
20041;DHT22;10181;48.072;9.884;2023-02-03T01:32:26;3.70;99.90
20041;DHT22;10181;48.072;9.884;2023-02-03T01:34:52;3.70;99.90
20041;DHT22;10181;48.072;9.884;2023-02-03T01:37:17;3.80;99.90
20041;DHT22;10181;48.072;9.884;2023-02-03T01:39:43;3.80;99.90
20041;DHT22;10181;48.072;9.884;2023-02-03T01:42:13;3.80;99.90
20041;DHT22;10181;48.072;9.884;2023-02-03T01:44:46;3.80;99.90
20041;DHT22;10181;48.072;9.884;2023-02-03T01:47:32;3.70;99.90
20041;DHT22;10181;48.072;9.884;2023-02-03T01:50:02;3.70;99.90
20041;DHT22;10181;48.072;9.884;2023-02-03T01:52:29;3.70;99.90
20041;DHT22;10181;48.072;9.884;2023-02-03T01:54:57;3.80;99.90
20041;DHT22;10181;48.072;9.884;2023-02-03T01:57:30;3.70;99.90
20041;DHT22;10181;48.072;9.884;2023-02-03T01:59:58;3.80;99.90
20041;DHT22;10181;48.072;9.884;2023-02-03T02:02:25;3.80;99.90
20041;DHT22;10181;48.072;9.884;2023-02-03T02:04:56;3.80;99.90
20041;DHT22;10181;48.072;9.884;2023-02-03T02:07:23;3.80;99.90
20041;DHT22;10181;48.072;9.884;2023-02-03T02:09:49;3.80;99.90
20041;DHT22;10181;48.072;9.884;2023-02-03T02:12:15;3.80;99.90
20041;DHT22;10181;48.072;9.884;2023-02-03T02:14:41;3.80;99.90
20041;DHT22;10181;48.072;9.884;2023-02-03T02:20:13;3.90;99.90
20041;DHT22;10181;48.072;9.884;2023-02-03T02:45:45;3.80;99.90
20041;DHT22;10181;48.072;9.884;2023-02-03T02:48:58;3.80;99.90
20041;DHT22;10181;48.072;9.884;2023-02-03T02:51:17;3.80;99.90
20041;DHT22;10181;48.072;9.884;2023-02-03T02:53:54;3.70;99.90
20041;DHT22;10181;48.072;9.884;2023-02-03T02:56:23;3.80;99.90
20041;DHT22;10181;48.072;9.884;2023-02-03T02:58:50;3.70;99.90
20041;DHT22;10181;48.072;9.884;2023-02-03T03:01:18;3.80;99.90
20041;DHT22;10181;48.072;9.884;2023-02-03T03:03:44;3.70;99.90
20041;DHT22;10181;48.072;9.884;2023-02-03T03:06:15;3.70;99.90
20041;DHT22;10181;48.072;9.884;2023-02-03T03:08:56;3.80;99.90
20041;DHT22;10181;48.072;9.884;2023-02-03T03:11:29;3.70;99.90
20041;DHT22;10181;48.072;9.884;2023-02-03T03:13:56;3.70;99.90
20041;DHT22;10181;48.072;9.884;2023-02-03T03:16:24;3.70;99.90
20041;DHT22;10181;48.072;9.884;2023-02-03T03:19:12;3.70;99.90
20041;DHT22;10181;48.072;9.884;2023-02-03T03:21:48;3.70;99.90
20041;DHT22;10181;48.072;9.884;2023-02-03T03:24:19;3.70;99.90
20041;DHT22;10181;48.072;9.884;2023-02-03T03:27:11;3.70;99.90
20041;DHT22;10181;48.072;9.884;2023-02-03T03:32:04;3.70;99.90
20041;DHT22;10181;48.072;9.884;2023-02-03T03:34:30;3.60;99.90
20041;DHT22;10181;48.072;9.884;2023-02-03T03:37:25;3.60;99.90
20041;DHT22;10181;48.072;9.884;2023-02-03T03:42:53;3.60;99.90
20041;DHT22;10181;48.072;9.884;2023-02-03T03:45:30;3.70;99.90
20041;DHT22;10181;48.072;9.884;2023-02-03T03:48:17;3.70;99.90
20041;DHT22;10181;48.072;9.884;2023-02-03T03:53:42;3.80;99.90
20041;DHT22;10181;48.072;9.884;2023-02-03T03:56:11;3.80;99.90
20041;DHT22;10181;48.072;9.884;2023-02-03T03:58:42;3.70;99.90
20041;DHT22;10181;48.072;9.884;2023-02-03T04:01:10;3.80;99.90
20041;DHT22;10181;48.072;9.884;2023-02-03T04:03:41;3.80;99.90
20041;DHT22;10181;48.072;9.884;2023-02-03T04:06:08;3.80;99.90
20041;DHT22;10181;48.072;9.884;2023-02-03T04:08:34;3.80;99.90
20041;DHT22;10181;48.072;9.884;2023-02-03T04:10:59;3.80;99.90
20041;DHT22;10181;48.072;9.884;2023-02-03T04:13:25;3.80;99.90
20041;DHT22;10181;48.072;9.884;2023-02-03T04:15:51;3.80;99.90
20041;DHT22;10181;48.072;9.884;2023-02-03T04:18:16;3.80;99.90
20041;DHT22;10181;48.072;9.884;2023-02-03T04:20:42;3.80;99.90
20041;DHT22;10181;48.072;9.884;2023-02-03T04:23:08;3.80;99.90
20041;DHT22;10181;48.072;9.884;2023-02-03T04:25:33;3.80;99.90
20041;DHT22;10181;48.072;9.884;2023-02-03T04:27:59;3.80;99.90
20041;DHT22;10181;48.072;9.884;2023-02-03T04:30:25;3.80;99.90
20041;DHT22;10181;48.072;9.884;2023-02-03T04:32:51;3.80;99.90
20041;DHT22;10181;48.072;9.884;2023-02-03T04:35:17;3.80;99.90
20041;DHT22;10181;48.072;9.884;2023-02-03T04:37:43;3.80;99.90
20041;DHT22;10181;48.072;9.884;2023-02-03T04:40:09;3.80;99.90
20041;DHT22;10181;48.072;9.884;2023-02-03T04:42:37;3.80;99.90
20041;DHT22;10181;48.072;9.884;2023-02-03T04:45:03;3.80;99.90
20041;DHT22;10181;48.072;9.884;2023-02-03T04:47:29;3.80;99.90
20041;DHT22;10181;48.072;9.884;2023-02-03T04:49:55;3.80;99.90
20041;DHT22;10181;48.072;9.884;2023-02-03T04:52:20;3.80;99.90
20041;DHT22;10181;48.072;9.884;2023-02-03T04:54:46;3.80;99.90
20041;DHT22;10181;48.072;9.884;2023-02-03T04:57:11;3.80;99.90
20041;DHT22;10181;48.072;9.884;2023-02-03T04:59:37;3.80;99.90
20041;DHT22;10181;48.072;9.884;2023-02-03T05:02:03;3.80;99.90
20041;DHT22;10181;48.072;9.884;2023-02-03T05:04:28;3.80;99.90
20041;DHT22;10181;48.072;9.884;2023-02-03T05:06:54;3.80;99.90
20041;DHT22;10181;48.072;9.884;2023-02-03T05:09:21;3.80;99.90
20041;DHT22;10181;48.072;9.884;2023-02-03T05:11:46;3.80;99.90
20041;DHT22;10181;48.072;9.884;2023-02-03T05:14:12;3.80;99.90
20041;DHT22;10181;48.072;9.884;2023-02-03T05:16:37;3.70;99.90
20041;DHT22;10181;48.072;9.884;2023-02-03T05:19:03;3.70;99.90
20041;DHT22;10181;48.072;9.884;2023-02-03T05:21:29;3.80;99.90
20041;DHT22;10181;48.072;9.884;2023-02-03T05:23:54;3.80;99.90
20041;DHT22;10181;48.072;9.884;2023-02-03T05:26:20;3.80;99.90
20041;DHT22;10181;48.072;9.884;2023-02-03T05:28:45;3.70;99.90
20041;DHT22;10181;48.072;9.884;2023-02-03T05:31:11;3.70;99.90
20041;DHT22;10181;48.072;9.884;2023-02-03T05:33:37;3.70;99.90
20041;DHT22;10181;48.072;9.884;2023-02-03T05:36:02;3.70;99.90
20041;DHT22;10181;48.072;9.884;2023-02-03T05:38:28;3.60;99.90
20041;DHT22;10181;48.072;9.884;2023-02-03T05:40:53;3.50;99.90
20041;DHT22;10181;48.072;9.884;2023-02-03T05:43:38;3.50;99.90
20041;DHT22;10181;48.072;9.884;2023-02-03T05:46:05;3.50;99.90
20041;DHT22;10181;48.072;9.884;2023-02-03T05:48:31;3.50;99.90
20041;DHT22;10181;48.072;9.884;2023-02-03T05:50:57;3.50;99.90
20041;DHT22;10181;48.072;9.884;2023-02-03T05:53:23;3.40;99.90
20041;DHT22;10181;48.072;9.884;2023-02-03T05:55:49;3.40;99.90
20041;DHT22;10181;48.072;9.884;2023-02-03T05:58:14;3.40;99.90
20041;DHT22;10181;48.072;9.884;2023-02-03T06:00:40;3.30;99.90
20041;DHT22;10181;48.072;9.884;2023-02-03T06:03:06;3.30;99.90
20041;DHT22;10181;48.072;9.884;2023-02-03T06:05:32;3.30;99.90
20041;DHT22;10181;48.072;9.884;2023-02-03T06:07:59;3.30;99.90
20041;DHT22;10181;48.072;9.884;2023-02-03T06:10:25;3.30;99.90
20041;DHT22;10181;48.072;9.884;2023-02-03T06:12:50;3.30;99.90
20041;DHT22;10181;48.072;9.884;2023-02-03T06:15:16;3.40;99.90
20041;DHT22;10181;48.072;9.884;2023-02-03T06:17:46;3.40;99.90
20041;DHT22;10181;48.072;9.884;2023-02-03T06:20:15;3.40;99.90
20041;DHT22;10181;48.072;9.884;2023-02-03T06:22:41;3.50;99.90
20041;DHT22;10181;48.072;9.884;2023-02-03T06:25:07;3.50;99.90
20041;DHT22;10181;48.072;9.884;2023-02-03T06:27:33;3.50;99.90
20041;DHT22;10181;48.072;9.884;2023-02-03T06:29:59;3.50;99.90
20041;DHT22;10181;48.072;9.884;2023-02-03T06:32:24;3.60;99.90
20041;DHT22;10181;48.072;9.884;2023-02-03T06:34:50;3.60;99.90
20041;DHT22;10181;48.072;9.884;2023-02-03T06:37:16;3.60;99.90
20041;DHT22;10181;48.072;9.884;2023-02-03T06:39:42;3.60;99.90
20041;DHT22;10181;48.072;9.884;2023-02-03T06:42:07;3.60;99.90
20041;DHT22;10181;48.072;9.884;2023-02-03T06:44:36;3.60;99.90
20041;DHT22;10181;48.072;9.884;2023-02-03T06:47:02;3.60;99.90
20041;DHT22;10181;48.072;9.884;2023-02-03T06:49:28;3.70;99.90
20041;DHT22;10181;48.072;9.884;2023-02-03T06:51:54;3.70;99.90
20041;DHT22;10181;48.072;9.884;2023-02-03T06:54:20;3.80;99.90
20041;DHT22;10181;48.072;9.884;2023-02-03T06:56:46;3.80;99.90
20041;DHT22;10181;48.072;9.884;2023-02-03T06:59:12;3.80;99.90
20041;DHT22;10181;48.072;9.884;2023-02-03T07:01:40;3.80;99.90
20041;DHT22;10181;48.072;9.884;2023-02-03T07:04:06;3.90;99.90
20041;DHT22;10181;48.072;9.884;2023-02-03T07:06:32;3.80;99.90
20041;DHT22;10181;48.072;9.884;2023-02-03T07:09:03;3.80;99.90
20041;DHT22;10181;48.072;9.884;2023-02-03T07:11:29;3.80;99.90
20041;DHT22;10181;48.072;9.884;2023-02-03T07:13:55;3.80;99.90
20041;DHT22;10181;48.072;9.884;2023-02-03T07:16:22;3.90;99.90
20041;DHT22;10181;48.072;9.884;2023-02-03T07:18:48;3.90;99.90
20041;DHT22;10181;48.072;9.884;2023-02-03T07:21:14;3.90;99.90
20041;DHT22;10181;48.072;9.884;2023-02-03T07:23:41;3.90;99.90
20041;DHT22;10181;48.072;9.884;2023-02-03T07:26:07;3.90;99.90
20041;DHT22;10181;48.072;9.884;2023-02-03T07:28:34;4.00;99.90
20041;DHT22;10181;48.072;9.884;2023-02-03T07:31:00;3.90;99.90
20041;DHT22;10181;48.072;9.884;2023-02-03T07:33:26;4.00;99.90
20041;DHT22;10181;48.072;9.884;2023-02-03T07:35:57;4.00;99.90
20041;DHT22;10181;48.072;9.884;2023-02-03T07:38:24;4.00;99.90
20041;DHT22;10181;48.072;9.884;2023-02-03T07:40:51;4.00;99.90
20041;DHT22;10181;48.072;9.884;2023-02-03T07:43:16;4.00;99.90
20041;DHT22;10181;48.072;9.884;2023-02-03T07:45:43;4.00;99.90
20041;DHT22;10181;48.072;9.884;2023-02-03T07:48:09;4.10;99.90
20041;DHT22;10181;48.072;9.884;2023-02-03T07:50:34;4.00;99.90
20041;DHT22;10181;48.072;9.884;2023-02-03T07:53:01;4.00;99.90
20041;DHT22;10181;48.072;9.884;2023-02-03T07:55:27;4.00;99.90
20041;DHT22;10181;48.072;9.884;2023-02-03T07:57:53;4.00;99.90
20041;DHT22;10181;48.072;9.884;2023-02-03T08:00:20;4.10;99.90
20041;DHT22;10181;48.072;9.884;2023-02-03T08:02:45;4.00;99.90
20041;DHT22;10181;48.072;9.884;2023-02-03T08:05:12;4.10;99.90
20041;DHT22;10181;48.072;9.884;2023-02-03T08:07:38;4.10;99.90
20041;DHT22;10181;48.072;9.884;2023-02-03T08:10:05;4.20;99.90
20041;DHT22;10181;48.072;9.884;2023-02-03T08:12:31;4.20;99.90
20041;DHT22;10181;48.072;9.884;2023-02-03T08:14:57;4.20;99.90
20041;DHT22;10181;48.072;9.884;2023-02-03T08:17:23;4.10;99.90
20041;DHT22;10181;48.072;9.884;2023-02-03T08:19:48;4.10;99.90
20041;DHT22;10181;48.072;9.884;2023-02-03T08:22:14;4.10;99.90
20041;DHT22;10181;48.072;9.884;2023-02-03T08:24:44;4.20;99.90
20041;DHT22;10181;48.072;9.884;2023-02-03T08:27:11;4.10;99.90
20041;DHT22;10181;48.072;9.884;2023-02-03T08:29:37;4.20;99.90
20041;DHT22;10181;48.072;9.884;2023-02-03T08:32:03;4.20;99.90
20041;DHT22;10181;48.072;9.884;2023-02-03T08:34:28;4.30;99.90
20041;DHT22;10181;48.072;9.884;2023-02-03T08:36:54;4.20;99.90
20041;DHT22;10181;48.072;9.884;2023-02-03T08:39:19;4.20;99.90
20041;DHT22;10181;48.072;9.884;2023-02-03T08:41:45;4.20;99.90
20041;DHT22;10181;48.072;9.884;2023-02-03T08:44:11;4.30;99.90
20041;DHT22;10181;48.072;9.884;2023-02-03T08:46:36;4.20;99.90
20041;DHT22;10181;48.072;9.884;2023-02-03T08:49:08;4.30;99.90
20041;DHT22;10181;48.072;9.884;2023-02-03T08:51:33;4.30;99.90
20041;DHT22;10181;48.072;9.884;2023-02-03T08:53:59;4.30;99.90
20041;DHT22;10181;48.072;9.884;2023-02-03T08:56:24;4.30;99.90
20041;DHT22;10181;48.072;9.884;2023-02-03T08:58:51;4.30;99.90
20041;DHT22;10181;48.072;9.884;2023-02-03T09:01:17;4.30;99.90
20041;DHT22;10181;48.072;9.884;2023-02-03T09:03:43;4.30;99.90
20041;DHT22;10181;48.072;9.884;2023-02-03T09:06:09;4.20;99.90
20041;DHT22;10181;48.072;9.884;2023-02-03T09:08:36;4.20;99.90
20041;DHT22;10181;48.072;9.884;2023-02-03T09:11:02;4.20;99.90
20041;DHT22;10181;48.072;9.884;2023-02-03T09:13:32;4.20;99.90
20041;DHT22;10181;48.072;9.884;2023-02-03T09:15:59;4.20;99.90
20041;DHT22;10181;48.072;9.884;2023-02-03T09:18:25;4.20;99.90
20041;DHT22;10181;48.072;9.884;2023-02-03T09:20:50;4.20;99.90
20041;DHT22;10181;48.072;9.884;2023-02-03T09:23:16;4.20;99.90
20041;DHT22;10181;48.072;9.884;2023-02-03T09:25:42;4.30;99.90
20041;DHT22;10181;48.072;9.884;2023-02-03T09:28:07;4.30;99.90
20041;DHT22;10181;48.072;9.884;2023-02-03T09:30:33;4.30;99.90
20041;DHT22;10181;48.072;9.884;2023-02-03T09:32:58;4.40;99.90
20041;DHT22;10181;48.072;9.884;2023-02-03T09:35:24;4.40;99.90
20041;DHT22;10181;48.072;9.884;2023-02-03T09:37:51;4.50;99.90
20041;DHT22;10181;48.072;9.884;2023-02-03T09:40:25;4.50;99.90
20041;DHT22;10181;48.072;9.884;2023-02-03T09:45:25;4.60;99.90
20041;DHT22;10181;48.072;9.884;2023-02-03T09:47:52;4.60;99.90
20041;DHT22;10181;48.072;9.884;2023-02-03T09:50:29;4.60;99.90
20041;DHT22;10181;48.072;9.884;2023-02-03T09:52:57;4.70;99.90
20041;DHT22;10181;48.072;9.884;2023-02-03T09:55:31;4.70;99.90
20041;DHT22;10181;48.072;9.884;2023-02-03T09:58:07;4.80;99.90
20041;DHT22;10181;48.072;9.884;2023-02-03T10:00:56;4.80;99.90
20041;DHT22;10181;48.072;9.884;2023-02-03T10:03:46;4.90;99.90
20041;DHT22;10181;48.072;9.884;2023-02-03T10:06:25;5.00;99.90
20041;DHT22;10181;48.072;9.884;2023-02-03T10:11:49;4.90;99.90
20041;DHT22;10181;48.072;9.884;2023-02-03T10:14:32;5.00;99.90
20041;DHT22;10181;48.072;9.884;2023-02-03T10:17:30;5.10;99.90
20041;DHT22;10181;48.072;9.884;2023-02-03T10:20:21;5.20;99.90
20041;DHT22;10181;48.072;9.884;2023-02-03T10:22:50;5.30;99.90
20041;DHT22;10181;48.072;9.884;2023-02-03T10:25:34;5.40;99.90
20041;DHT22;10181;48.072;9.884;2023-02-03T10:28:04;5.50;99.90
20041;DHT22;10181;48.072;9.884;2023-02-03T10:30:39;5.40;99.90
20041;DHT22;10181;48.072;9.884;2023-02-03T10:33:15;5.50;99.90
20041;DHT22;10181;48.072;9.884;2023-02-03T10:35:50;5.50;99.90
20041;DHT22;10181;48.072;9.884;2023-02-03T10:38:30;5.50;99.90
20041;DHT22;10181;48.072;9.884;2023-02-03T10:40:58;5.60;99.90
20041;DHT22;10181;48.072;9.884;2023-02-03T10:43:23;5.60;99.90
20041;DHT22;10181;48.072;9.884;2023-02-03T10:46:07;5.70;99.90
20041;DHT22;10181;48.072;9.884;2023-02-03T10:48:33;5.70;99.90
20041;DHT22;10181;48.072;9.884;2023-02-03T10:51:00;5.70;99.90
20041;DHT22;10181;48.072;9.884;2023-02-03T10:53:36;5.80;99.90
20041;DHT22;10181;48.072;9.884;2023-02-03T10:56:10;5.60;99.90
20041;DHT22;10181;48.072;9.884;2023-02-03T10:58:39;5.60;99.90
20041;DHT22;10181;48.072;9.884;2023-02-03T11:01:16;5.60;99.90
20041;DHT22;10181;48.072;9.884;2023-02-03T11:03:44;5.60;99.90
20041;DHT22;10181;48.072;9.884;2023-02-03T11:06:18;5.60;99.90
20041;DHT22;10181;48.072;9.884;2023-02-03T11:08:46;5.60;99.90
20041;DHT22;10181;48.072;9.884;2023-02-03T11:16:35;5.80;99.90
20041;DHT22;10181;48.072;9.884;2023-02-03T11:19:17;5.80;99.90
20041;DHT22;10181;48.072;9.884;2023-02-03T11:21:50;5.90;99.90
20041;DHT22;10181;48.072;9.884;2023-02-03T11:24:23;5.90;99.90
20041;DHT22;10181;48.072;9.884;2023-02-03T11:29:25;5.90;99.90
20041;DHT22;10181;48.072;9.884;2023-02-03T11:31:54;5.90;99.90
20041;DHT22;10181;48.072;9.884;2023-02-03T11:34:43;5.80;99.90
20041;DHT22;10181;48.072;9.884;2023-02-03T11:42:58;5.80;99.90
20041;DHT22;10181;48.072;9.884;2023-02-03T11:45:28;5.80;99.90
20041;DHT22;10181;48.072;9.884;2023-02-03T11:54:00;5.80;99.90
20041;DHT22;10181;48.072;9.884;2023-02-03T11:57:25;5.90;99.90
20041;DHT22;10181;48.072;9.884;2023-02-03T12:02:23;5.90;99.90
20041;DHT22;10181;48.072;9.884;2023-02-03T12:05:18;5.90;99.90
20041;DHT22;10181;48.072;9.884;2023-02-03T12:16:02;5.80;99.90
20041;DHT22;10181;48.072;9.884;2023-02-03T12:18:54;5.90;99.90
20041;DHT22;10181;48.072;9.884;2023-02-03T12:21:32;5.80;99.90
20041;DHT22;10181;48.072;9.884;2023-02-03T12:26:49;5.80;99.90
20041;DHT22;10181;48.072;9.884;2023-02-03T12:29:23;5.80;99.90
20041;DHT22;10181;48.072;9.884;2023-02-03T12:34:46;5.90;99.90
20041;DHT22;10181;48.072;9.884;2023-02-03T12:37:24;5.90;99.90
20041;DHT22;10181;48.072;9.884;2023-02-03T12:39:53;5.90;99.90
20041;DHT22;10181;48.072;9.884;2023-02-03T12:42:25;5.90;99.90
20041;DHT22;10181;48.072;9.884;2023-02-03T12:45:12;5.90;99.90
20041;DHT22;10181;48.072;9.884;2023-02-03T12:47:50;6.00;99.90
20041;DHT22;10181;48.072;9.884;2023-02-03T12:50:20;6.00;99.90
20041;DHT22;10181;48.072;9.884;2023-02-03T12:52:50;5.90;99.90
20041;DHT22;10181;48.072;9.884;2023-02-03T12:55:30;6.00;99.90
20041;DHT22;10181;48.072;9.884;2023-02-03T12:58:23;6.00;99.90
20041;DHT22;10181;48.072;9.884;2023-02-03T13:00:53;6.00;99.90
20041;DHT22;10181;48.072;9.884;2023-02-03T13:03:34;5.90;99.90
20041;DHT22;10181;48.072;9.884;2023-02-03T13:12:49;5.90;99.90
20041;DHT22;10181;48.072;9.884;2023-02-03T13:15:35;6.00;99.90
20041;DHT22;10181;48.072;9.884;2023-02-03T13:21:04;6.00;99.90
20041;DHT22;10181;48.072;9.884;2023-02-03T13:23:30;6.00;99.90
20041;DHT22;10181;48.072;9.884;2023-02-03T13:28:47;5.90;99.90
20041;DHT22;10181;48.072;9.884;2023-02-03T13:42:19;5.90;99.90
20041;DHT22;10181;48.072;9.884;2023-02-03T13:44:49;6.00;99.90
20041;DHT22;10181;48.072;9.884;2023-02-03T13:47:21;5.90;99.90
20041;DHT22;10181;48.072;9.884;2023-02-03T13:49:53;6.00;99.90
20041;DHT22;10181;48.072;9.884;2023-02-03T13:52:35;6.00;99.90
20041;DHT22;10181;48.072;9.884;2023-02-03T13:55:03;6.00;99.90
20041;DHT22;10181;48.072;9.884;2023-02-03T13:57:37;6.00;99.90
20041;DHT22;10181;48.072;9.884;2023-02-03T14:00:06;6.10;99.90
20041;DHT22;10181;48.072;9.884;2023-02-03T14:02:54;6.10;99.90
20041;DHT22;10181;48.072;9.884;2023-02-03T14:05:46;6.10;99.90
20041;DHT22;10181;48.072;9.884;2023-02-03T14:19:00;6.00;99.90
20041;DHT22;10181;48.072;9.884;2023-02-03T14:21:30;5.90;99.90
20041;DHT22;10181;48.072;9.884;2023-02-03T14:24:05;6.00;99.90
20041;DHT22;10181;48.072;9.884;2023-02-03T14:26:44;5.90;99.90
20041;DHT22;10181;48.072;9.884;2023-02-03T14:29:30;5.90;99.90
20041;DHT22;10181;48.072;9.884;2023-02-03T14:32:04;6.00;99.90
20041;DHT22;10181;48.072;9.884;2023-02-03T14:37:16;6.00;99.90
20041;DHT22;10181;48.072;9.884;2023-02-03T14:40:16;5.90;99.90
20041;DHT22;10181;48.072;9.884;2023-02-03T14:42:49;5.90;99.90
20041;DHT22;10181;48.072;9.884;2023-02-03T14:53:44;6.00;99.90
20041;DHT22;10181;48.072;9.884;2023-02-03T14:59:24;5.90;99.90
20041;DHT22;10181;48.072;9.884;2023-02-03T15:02:13;5.90;99.90
20041;DHT22;10181;48.072;9.884;2023-02-03T15:04:36;5.90;99.90
20041;DHT22;10181;48.072;9.884;2023-02-03T15:07:02;5.90;99.90
20041;DHT22;10181;48.072;9.884;2023-02-03T15:12:19;5.90;99.90
20041;DHT22;10181;48.072;9.884;2023-02-03T15:14:47;5.90;99.90
20041;DHT22;10181;48.072;9.884;2023-02-03T15:19:46;5.90;99.90
20041;DHT22;10181;48.072;9.884;2023-02-03T15:24:43;5.90;99.90
20041;DHT22;10181;48.072;9.884;2023-02-03T15:27:23;5.90;99.90
20041;DHT22;10181;48.072;9.884;2023-02-03T15:29:49;5.90;99.90
20041;DHT22;10181;48.072;9.884;2023-02-03T15:34:49;5.90;99.90
20041;DHT22;10181;48.072;9.884;2023-02-03T15:37:28;5.90;99.90
20041;DHT22;10181;48.072;9.884;2023-02-03T15:40:02;5.90;99.90
20041;DHT22;10181;48.072;9.884;2023-02-03T15:48:16;5.80;99.90
20041;DHT22;10181;48.072;9.884;2023-02-03T15:53:31;5.70;99.90
20041;DHT22;10181;48.072;9.884;2023-02-03T15:56:02;5.70;99.90
20041;DHT22;10181;48.072;9.884;2023-02-03T15:58:34;5.70;99.90
20041;DHT22;10181;48.072;9.884;2023-02-03T16:01:08;5.70;99.90
20041;DHT22;10181;48.072;9.884;2023-02-03T16:03:42;5.80;99.90
20041;DHT22;10181;48.072;9.884;2023-02-03T16:08:47;5.70;99.90
20041;DHT22;10181;48.072;9.884;2023-02-03T16:11:32;5.70;99.90
20041;DHT22;10181;48.072;9.884;2023-02-03T16:14:01;5.70;99.90
20041;DHT22;10181;48.072;9.884;2023-02-03T16:19:01;5.70;99.90
20041;DHT22;10181;48.072;9.884;2023-02-03T16:21:32;5.70;99.90
20041;DHT22;10181;48.072;9.884;2023-02-03T16:23:59;5.70;99.90
20041;DHT22;10181;48.072;9.884;2023-02-03T16:26:30;5.70;99.90
20041;DHT22;10181;48.072;9.884;2023-02-03T16:29:10;5.70;99.90
20041;DHT22;10181;48.072;9.884;2023-02-03T16:31:56;5.60;99.90
20041;DHT22;10181;48.072;9.884;2023-02-03T16:34:40;5.60;99.90
20041;DHT22;10181;48.072;9.884;2023-02-03T16:37:30;5.60;99.90
20041;DHT22;10181;48.072;9.884;2023-02-03T16:40:20;5.60;99.90
20041;DHT22;10181;48.072;9.884;2023-02-03T16:43:10;5.60;99.90
20041;DHT22;10181;48.072;9.884;2023-02-03T16:45:55;5.60;99.90
20041;DHT22;10181;48.072;9.884;2023-02-03T16:48:40;5.60;99.90
20041;DHT22;10181;48.072;9.884;2023-02-03T16:51:26;5.60;99.90
20041;DHT22;10181;48.072;9.884;2023-02-03T16:53:53;5.60;99.90
20041;DHT22;10181;48.072;9.884;2023-02-03T16:56:19;5.60;99.90
20041;DHT22;10181;48.072;9.884;2023-02-03T16:58:45;5.60;99.90
20041;DHT22;10181;48.072;9.884;2023-02-03T17:01:11;5.60;99.90
20041;DHT22;10181;48.072;9.884;2023-02-03T17:03:37;5.60;99.90
20041;DHT22;10181;48.072;9.884;2023-02-03T17:06:12;5.60;99.90
20041;DHT22;10181;48.072;9.884;2023-02-03T17:08:39;5.50;99.90
20041;DHT22;10181;48.072;9.884;2023-02-03T17:11:12;5.50;99.90
20041;DHT22;10181;48.072;9.884;2023-02-03T17:13:39;5.50;99.90
20041;DHT22;10181;48.072;9.884;2023-02-03T17:16:14;5.50;99.90
20041;DHT22;10181;48.072;9.884;2023-02-03T17:18:41;5.50;99.90
20041;DHT22;10181;48.072;9.884;2023-02-03T17:21:09;5.50;99.90
20041;DHT22;10181;48.072;9.884;2023-02-03T17:23:36;5.50;99.90
20041;DHT22;10181;48.072;9.884;2023-02-03T17:26:02;5.40;99.90
20041;DHT22;10181;48.072;9.884;2023-02-03T17:28:27;5.40;99.90
20041;DHT22;10181;48.072;9.884;2023-02-03T17:30:57;5.50;99.90
20041;DHT22;10181;48.072;9.884;2023-02-03T17:33:24;5.40;99.90
20041;DHT22;10181;48.072;9.884;2023-02-03T17:36:11;5.50;99.90
20041;DHT22;10181;48.072;9.884;2023-02-03T17:38:43;5.50;99.90
20041;DHT22;10181;48.072;9.884;2023-02-03T17:41:13;5.40;99.90
20041;DHT22;10181;48.072;9.884;2023-02-03T17:43:40;5.50;99.90
20041;DHT22;10181;48.072;9.884;2023-02-03T17:46:06;5.50;99.90
20041;DHT22;10181;48.072;9.884;2023-02-03T17:48:33;5.50;99.90
20041;DHT22;10181;48.072;9.884;2023-02-03T17:51:28;5.40;99.90
20041;DHT22;10181;48.072;9.884;2023-02-03T17:53:57;5.30;99.90
20041;DHT22;10181;48.072;9.884;2023-02-03T17:56:25;5.40;99.90
20041;DHT22;10181;48.072;9.884;2023-02-03T17:58:55;5.40;99.90
20041;DHT22;10181;48.072;9.884;2023-02-03T18:01:21;5.40;99.90
20041;DHT22;10181;48.072;9.884;2023-02-03T18:03:57;5.40;99.90
20041;DHT22;10181;48.072;9.884;2023-02-03T18:06:25;5.30;99.90
20041;DHT22;10181;48.072;9.884;2023-02-03T18:08:51;5.30;99.90
20041;DHT22;10181;48.072;9.884;2023-02-03T18:11:17;5.20;99.90
20041;DHT22;10181;48.072;9.884;2023-02-03T18:13:46;5.20;99.90
20041;DHT22;10181;48.072;9.884;2023-02-03T18:16:14;5.20;99.90
20041;DHT22;10181;48.072;9.884;2023-02-03T18:18:41;5.10;99.90
20041;DHT22;10181;48.072;9.884;2023-02-03T18:21:09;5.10;99.90
20041;DHT22;10181;48.072;9.884;2023-02-03T18:23:35;5.10;99.90
20041;DHT22;10181;48.072;9.884;2023-02-03T18:26:02;5.10;99.90
20041;DHT22;10181;48.072;9.884;2023-02-03T18:28:28;5.00;99.90
20041;DHT22;10181;48.072;9.884;2023-02-03T18:30:58;5.00;99.90
20041;DHT22;10181;48.072;9.884;2023-02-03T18:33:24;4.90;99.90